EDQZ weather

Pegnitz-Zipser Berg Airport
Pegnitz, Bavaria, Germany

Public forecast

Using degrees Celsius for public forecast. Weather courtesy of forecast.io.

Closest aviation weather report (METAR) to Pegnitz-Zipser Berg Airport

Closest report is Grafenwohr Army Air Field, 14.7 nm (27.2 km) ESE. Retrieved 2020/04/02 04:56 UTC (1 hour ago):

ETIC 020456Z AUTO 00000KT 9999 CLR M07/M08 A2993 RMK AO2 SLP159 T10721080

Closest aviation forecast (TAF) to Pegnitz-Zipser Berg Airport

Closest forecast is Grafenwohr Army Air Field, 14.7 nm (27.2 km) ESE. Retrieved 2020-04-02 02:00 UTC (4 hours ago):

TAF ETIC 020200Z 0202/0308 VRB06KT 9999 SKC QNH2989INS BECMG 0220/0221 VRB06KT 9999 SCT030 QNH2983INS BECMG 0302/0303 26009KT 9999 SCT015 BKN030 QNH2987INS TEMPO 0303/0308 27012G20KT 8000 -SHRA BKN015 TX10/0213Z TNM07/0204Z